createdAt,value
2023-01-25T00:01:23.996Z,99777.25
2023-01-25T00:03:26.974Z,99784.13
2023-01-25T00:05:30.053Z,99779.81
2023-01-25T00:07:34.608Z,99778.09
2023-01-25T00:09:37.746Z,99770.34
2023-01-25T00:11:40.997Z,99766.88
2023-01-25T00:13:44.134Z,99767.63
2023-01-25T00:15:47.068Z,99760.75
2023-01-25T00:17:51.330Z,99760.72
2023-01-25T00:19:54.289Z,99758.94
2023-01-25T00:21:57.267Z,99763.38
2023-01-25T00:24:01.960Z,99760.88
2023-01-25T00:26:05.188Z,99756.53
2023-01-25T00:28:08.248Z,99749.56
2023-01-25T00:30:12.252Z,99750.53
2023-01-25T00:32:49.481Z,99757.47
2023-01-25T00:34:52.605Z,99771.22
2023-01-25T00:36:57.965Z,99773.75
2023-01-25T00:39:02.344Z,99770.31
2023-01-25T00:41:05.651Z,99765.28
2023-01-25T00:43:09.999Z,99755.03
2023-01-25T00:45:13.335Z,99761.06
2023-01-25T00:47:16.773Z,99759.22
2023-01-25T00:49:22.580Z,99754.84
2023-01-25T00:51:26.196Z,99755.59
2023-01-25T00:53:29.272Z,99741.69
2023-01-25T00:55:33.928Z,99747.69
2023-01-25T00:57:36.867Z,99733.13
2023-01-25T00:59:44.326Z,99739.06
2023-01-25T01:01:47.288Z,99733.84
2023-01-25T01:03:52.380Z,99737.19
2023-01-25T01:06:01.634Z,99733.66
2023-01-25T01:08:04.924Z,99743.03
2023-01-25T01:10:08.913Z,99737.84
2023-01-25T01:12:13.261Z,99741.25
2023-01-25T01:14:16.496Z,99742.03
2023-01-25T01:16:19.569Z,99751.44
2023-01-25T01:18:22.721Z,99747.84
2023-01-25T01:20:25.631Z,99752.06
2023-01-25T01:22:31.391Z,99748.63
2023-01-25T01:24:34.390Z,99752.13
2023-01-25T01:26:39.373Z,99748.66
2023-01-25T01:28:43.843Z,99746.19
2023-01-25T01:30:46.907Z,99747.16
2023-01-25T01:32:51.398Z,99744.56
2023-01-25T01:34:54.794Z,99743.53
2023-01-25T01:36:57.714Z,99741.81
2023-01-25T01:39:00.875Z,99739.19
2023-01-25T01:41:04.133Z,99746.97
2023-01-25T01:43:13.560Z,99750.44
2023-01-25T01:45:53.036Z,99743.69
2023-01-25T01:48:02.015Z,99744.56
2023-01-25T01:50:09.682Z,99743.69
2023-01-25T01:52:16.241Z,99747.03
2023-01-25T01:54:22.141Z,99743.66
2023-01-25T01:56:30.620Z,99750.44
2023-01-25T01:58:37.591Z,99739.34
2023-01-25T02:00:41.824Z,99738.59
2023-01-25T02:02:46.627Z,99745.44
2023-01-25T02:04:50.698Z,99745.56
2023-01-25T02:06:57.295Z,99743.91
2023-01-25T02:09:01.834Z,99746.44
2023-01-25T02:11:05.736Z,99743.84
2023-01-25T02:13:08.770Z,99742.09
2023-01-25T02:15:12.274Z,99737.81
2023-01-25T02:17:15.280Z,99732.69
2023-01-25T02:19:28.278Z,99732.75
2023-01-25T02:21:37.230Z,99730.31
2023-01-25T02:23:48.481Z,99723.41
2023-01-25T02:25:52.887Z,99718.16
2023-01-25T02:27:57.711Z,99728.66
2023-01-25T02:30:02.182Z,99721.84
2023-01-25T02:32:06.828Z,99726.06
2023-01-25T02:34:09.810Z,99713.25
2023-01-25T02:36:22.367Z,99717.59
2023-01-25T02:38:25.387Z,99721.09
2023-01-25T02:40:31.854Z,99717.63
2023-01-25T02:42:36.246Z,99710.84
2023-01-25T02:44:43.317Z,99705.66
2023-01-25T02:46:47.919Z,99711.66
2023-01-25T02:48:51.014Z,99712.41
2023-01-25T02:50:54.034Z,99708.16
2023-01-25T02:52:57.046Z,99710.69
2023-01-25T02:54:59.977Z,99708.84
2023-01-25T02:57:03.497Z,99704.53
2023-01-25T02:59:19.315Z,99707.91
2023-01-25T03:01:27.065Z,99701.00
2023-01-25T03:03:30.688Z,99692.72
2023-01-25T03:05:34.005Z,99691.88
2023-01-25T03:07:37.121Z,99697.81
2023-01-25T03:09:40.262Z,99690.16
2023-01-25T03:11:43.243Z,99680.75
2023-01-25T03:13:48.008Z,99680.69
2023-01-25T03:15:52.403Z,99685.72
2023-01-25T03:17:56.700Z,99680.66
2023-01-25T03:19:59.797Z,99677.16
2023-01-25T03:22:02.810Z,99681.53
2023-01-25T03:24:08.272Z,99677.31
2023-01-25T03:26:17.178Z,99673.81
2023-01-25T03:28:40.452Z,99666.09
2023-01-25T03:30:43.479Z,99679.81
2023-01-25T03:32:48.564Z,99673.81
2023-01-25T03:34:55.282Z,99672.22
2023-01-25T03:36:58.287Z,99677.41
2023-01-25T03:39:03.439Z,99664.59
2023-01-25T03:41:08.011Z,99674.91
2023-01-25T03:43:11.462Z,99680.00
2023-01-25T03:45:15.181Z,99667.06
2023-01-25T03:47:18.555Z,99676.50
2023-01-25T03:49:23.211Z,99664.41
2023-01-25T03:51:27.320Z,99666.09
2023-01-25T03:53:32.915Z,99671.41
2023-01-25T03:55:46.360Z,99671.41
2023-01-25T03:57:49.892Z,99666.38
2023-01-25T03:59:53.199Z,99668.16
2023-01-25T04:01:56.787Z,99660.59
2023-01-25T04:03:59.798Z,99661.47
2023-01-25T04:06:04.453Z,99664.78
2023-01-25T04:08:08.356Z,99661.31
2023-01-25T04:10:15.324Z,99657.16
2023-01-25T04:12:21.847Z,99660.53
2023-01-25T04:14:42.505Z,99646.75
2023-01-25T04:16:47.977Z,99655.25
2023-01-25T04:19:11.263Z,99656.91
2023-01-25T04:21:16.784Z,99652.66
2023-01-25T04:23:19.988Z,99644.94
2023-01-25T04:25:23.112Z,99641.56
2023-01-25T04:27:29.513Z,99644.13
2023-01-25T04:29:41.378Z,99638.22
2023-01-25T04:31:49.047Z,99636.53
2023-01-25T04:33:52.383Z,99633.94
2023-01-25T04:35:56.446Z,99640.78
2023-01-25T04:38:02.179Z,99647.75
2023-01-25T04:40:14.639Z,99632.38
2023-01-25T04:42:21.382Z,99633.19
2023-01-25T04:44:28.399Z,99632.38
2023-01-25T04:46:31.484Z,99635.78
2023-01-25T04:48:34.468Z,99638.38
2023-01-25T04:50:41.739Z,99639.25
2023-01-25T04:52:45.765Z,99644.53
2023-01-25T04:54:50.259Z,99644.56
2023-01-25T04:56:53.740Z,99648.81
2023-01-25T04:58:56.921Z,99645.41
2023-01-25T05:01:01.914Z,99636.84
2023-01-25T05:03:05.317Z,99642.75
2023-01-25T05:05:09.751Z,99640.94
2023-01-25T05:07:13.092Z,99643.53
2023-01-25T05:09:17.607Z,99648.59
2023-01-25T05:11:23.246Z,99633.91
2023-01-25T05:13:31.859Z,99638.94
2023-01-25T05:15:44.854Z,99637.34
2023-01-25T05:17:47.868Z,99633.88
2023-01-25T05:19:50.916Z,99629.78
2023-01-25T05:21:59.507Z,99624.63
2023-01-25T05:24:17.654Z,99621.22
2023-01-25T05:26:41.711Z,99617.69
2023-01-25T05:28:44.712Z,99615.06
2023-01-25T05:31:17.099Z,99621.03
2023-01-25T05:33:20.359Z,99617.63
2023-01-25T05:35:23.397Z,99616.84
2023-01-25T05:37:30.043Z,99617.66
2023-01-25T05:39:38.131Z,99621.97
2023-01-25T05:41:42.401Z,99625.34
2023-01-25T05:43:45.564Z,99624.44
2023-01-25T05:45:53.610Z,99615.81
2023-01-25T05:47:57.774Z,99615.00
2023-01-25T05:50:01.053Z,99619.28
2023-01-25T05:52:17.215Z,99628.72
2023-01-25T05:54:20.387Z,99613.22
2023-01-25T05:56:32.851Z,99612.41
2023-01-25T05:58:37.473Z,99615.81
2023-01-25T06:00:40.412Z,99606.31
2023-01-25T06:02:43.800Z,99608.91
2023-01-25T06:04:51.859Z,99614.97
2023-01-25T06:06:54.968Z,99612.31
2023-01-25T06:08:58.915Z,99613.19
2023-01-25T06:11:07.742Z,99611.44
2023-01-25T06:13:11.152Z,99603.72
2023-01-25T06:15:15.597Z,99598.66
2023-01-25T06:17:18.808Z,99599.59
2023-01-25T06:19:36.135Z,99590.97
2023-01-25T06:21:57.847Z,99588.41
2023-01-25T06:24:00.904Z,99605.56
2023-01-25T06:26:07.058Z,99604.72
2023-01-25T06:28:10.333Z,99598.81
2023-01-25T06:30:15.154Z,99604.03
2023-01-25T06:32:18.229Z,99604.09
2023-01-25T06:34:21.474Z,99593.81
2023-01-25T06:36:24.798Z,99599.81
2023-01-25T06:38:27.766Z,99599.09
2023-01-25T06:40:30.733Z,99602.75
2023-01-25T06:42:33.729Z,99596.75
2023-01-25T06:44:36.712Z,99590.66
2023-01-25T06:46:41.076Z,99591.50
2023-01-25T06:48:44.040Z,99583.78
2023-01-25T06:50:47.019Z,99587.13
2023-01-25T06:52:53.841Z,99588.00
2023-01-25T06:54:56.842Z,99588.66
2023-01-25T06:56:59.802Z,99584.41
2023-01-25T06:59:02.730Z,99582.56
2023-01-25T07:01:06.992Z,99587.69
2023-01-25T07:03:11.338Z,99581.53
2023-01-25T07:05:14.459Z,99583.28
2023-01-25T07:07:17.475Z,99583.25
2023-01-25T07:09:24.068Z,99579.00
2023-01-25T07:11:27.604Z,99585.06
2023-01-25T07:13:32.937Z,99589.22
2023-01-25T07:15:35.923Z,99586.75
2023-01-25T07:17:39.001Z,99587.59
2023-01-25T07:19:43.271Z,99588.44
2023-01-25T07:21:47.076Z,99585.81
2023-01-25T07:23:50.165Z,99575.50
2023-01-25T07:25:53.127Z,99568.59
2023-01-25T07:27:56.133Z,99562.47
2023-01-25T07:29:59.787Z,99565.94
2023-01-25T07:32:03.452Z,99560.69
2023-01-25T07:34:07.145Z,99569.16
2023-01-25T07:36:12.249Z,99563.13
2023-01-25T07:38:15.657Z,99578.56
2023-01-25T07:40:19.706Z,99570.81
2023-01-25T07:42:22.707Z,99577.53
2023-01-25T07:44:42.607Z,99571.44
2023-01-25T07:46:48.797Z,99566.22
2023-01-25T07:48:53.173Z,99573.25
2023-01-25T07:51:12.489Z,99573.31
2023-01-25T07:53:17.168Z,99569.88
2023-01-25T07:55:20.118Z,99573.19
2023-01-25T07:57:23.193Z,99575.72
2023-01-25T07:59:27.119Z,99575.63
2023-01-25T08:01:32.088Z,99572.13
2023-01-25T08:03:35.101Z,99579.84
2023-01-25T08:05:39.500Z,99576.44
2023-01-25T08:07:43.341Z,99576.47
2023-01-25T08:09:47.773Z,99565.41
2023-01-25T08:11:52.634Z,99578.22
2023-01-25T08:13:56.245Z,99577.56
2023-01-25T08:15:59.512Z,99579.28
2023-01-25T08:18:02.839Z,99579.34
2023-01-25T08:20:07.535Z,99576.69
2023-01-25T08:22:10.587Z,99583.75
2023-01-25T08:24:15.236Z,99578.53
2023-01-25T08:26:21.040Z,99580.38
2023-01-25T08:28:24.178Z,99570.13
2023-01-25T08:30:27.158Z,99569.25
2023-01-25T08:32:30.259Z,99569.22
2023-01-25T08:34:33.355Z,99570.16
2023-01-25T08:36:36.381Z,99566.69
2023-01-25T08:38:39.723Z,99558.09
2023-01-25T08:40:42.719Z,99564.06
2023-01-25T08:42:47.034Z,99562.31
2023-01-25T08:44:50.037Z,99557.03
2023-01-25T08:46:53.135Z,99561.16
2023-01-25T08:48:57.240Z,99555.28
2023-01-25T08:51:00.661Z,99550.94
2023-01-25T08:53:03.605Z,99549.16
2023-01-25T08:55:07.567Z,99544.19
2023-01-25T08:57:10.595Z,99543.38
2023-01-25T08:59:15.077Z,99546.88
2023-01-25T09:01:19.133Z,99544.34
2023-01-25T09:03:22.153Z,99537.50
2023-01-25T09:05:25.174Z,99541.94
2023-01-25T09:07:28.155Z,99539.28
2023-01-25T09:09:31.170Z,99537.53
2023-01-25T09:11:36.932Z,99539.25
2023-01-25T09:13:43.353Z,99541.94
2023-01-25T09:15:47.701Z,99535.91
2023-01-25T09:17:52.085Z,99540.34
2023-01-25T09:19:55.146Z,99541.34
2023-01-25T09:21:58.259Z,99538.69
2023-01-25T09:24:06.375Z,99529.41
2023-01-25T09:26:11.438Z,99523.41
2023-01-25T09:28:14.558Z,99525.97
2023-01-25T09:30:19.274Z,99520.84
2023-01-25T09:32:28.539Z,99523.25
2023-01-25T09:34:31.550Z,99521.38
2023-01-25T09:36:34.561Z,99527.50
2023-01-25T09:38:37.646Z,99523.19
2023-01-25T09:40:42.668Z,99523.13
2023-01-25T09:42:53.335Z,99521.28
2023-01-25T09:45:25.118Z,99516.00
2023-01-25T09:47:32.080Z,99513.53
2023-01-25T09:49:59.383Z,99528.84
2023-01-25T09:52:15.810Z,99523.56
2023-01-25T09:54:20.757Z,99526.22
2023-01-25T09:56:26.952Z,99519.47
2023-01-25T09:58:34.333Z,99522.81
2023-01-25T10:00:40.665Z,99526.13
2023-01-25T10:02:48.847Z,99520.97
2023-01-25T10:04:53.033Z,99514.00
2023-01-25T10:07:01.573Z,99516.44
2023-01-25T10:09:17.384Z,99520.72
2023-01-25T10:11:23.349Z,99510.34
2023-01-25T10:13:31.586Z,99508.63
2023-01-25T10:15:39.147Z,99511.06
2023-01-25T10:17:42.716Z,99509.44
2023-01-25T10:19:55.616Z,99509.38
2023-01-25T10:22:02.345Z,99505.13
2023-01-25T10:24:20.432Z,99504.38
2023-01-25T10:26:26.639Z,99502.72
2023-01-25T10:28:38.853Z,99501.81
2023-01-25T10:30:48.068Z,99493.19
2023-01-25T10:32:56.144Z,99500.09
2023-01-25T10:35:13.840Z,99487.31
2023-01-25T10:37:21.311Z,99486.44
2023-01-25T10:39:25.072Z,99483.78
2023-01-25T10:41:32.651Z,99481.28
2023-01-25T10:43:35.696Z,99482.91
2023-01-25T10:45:39.272Z,99492.38
2023-01-25T10:47:44.044Z,99488.09
2023-01-25T10:49:48.659Z,99482.13
2023-01-25T10:51:53.051Z,99485.53
2023-01-25T10:54:01.579Z,99479.53
2023-01-25T10:56:22.679Z,99475.31
2023-01-25T10:58:37.057Z,99476.31
2023-01-25T11:00:42.271Z,99473.13
2023-01-25T11:02:47.101Z,99471.31
2023-01-25T11:04:50.217Z,99477.31
2023-01-25T11:06:54.659Z,99477.31
2023-01-25T11:08:57.648Z,99473.81
2023-01-25T11:11:01.195Z,99473.69
2023-01-25T11:13:23.739Z,99466.78
2023-01-25T11:15:27.024Z,99460.00
2023-01-25T11:17:32.227Z,99455.69
2023-01-25T11:19:37.449Z,99447.94
2023-01-25T11:21:54.049Z,99448.75
2023-01-25T11:24:38.879Z,99450.41
2023-01-25T11:26:50.867Z,99450.31
2023-01-25T11:29:08.594Z,99447.66
2023-01-25T11:31:14.036Z,99448.50
2023-01-25T11:33:18.850Z,99441.63
2023-01-25T11:35:26.754Z,99438.09
2023-01-25T11:41:24.324Z,99426.13
2023-01-25T11:43:43.657Z,99419.28
2023-01-25T11:46:01.733Z,99414.91
2023-01-25T11:48:14.748Z,99413.13
2023-01-25T11:50:23.030Z,99401.97
2023-01-25T11:52:32.562Z,99394.47
2023-01-25T11:54:43.397Z,99397.06
2023-01-25T11:56:54.353Z,99389.34
2023-01-25T11:59:10.733Z,99386.06
2023-01-25T12:01:20.162Z,99373.22
2023-01-25T12:03:39.042Z,99371.50
2023-01-25T12:05:51.479Z,99368.94
2023-01-25T12:08:04.301Z,99356.03
2023-01-25T12:10:21.340Z,99353.44
2023-01-25T12:12:32.963Z,99360.28
2023-01-25T12:14:47.881Z,99356.97
2023-01-25T12:17:08.367Z,99350.00
2023-01-25T12:19:36.413Z,99337.03
2023-01-25T12:21:51.863Z,99327.69
2023-01-25T12:24:05.820Z,99321.59
2023-01-25T12:26:19.716Z,99320.66
2023-01-25T12:28:26.807Z,99320.56
2023-01-25T12:30:39.169Z,99316.84
2023-01-25T12:32:46.189Z,99304.59
2023-01-25T12:34:52.395Z,99310.66
2023-01-25T12:36:56.066Z,99305.25
2023-01-25T12:39:02.162Z,99310.34
2023-01-25T12:41:09.413Z,99289.47
2023-01-25T12:43:16.916Z,99298.09
2023-01-25T12:45:23.911Z,99288.56
2023-01-25T12:47:36.107Z,99286.69
2023-01-25T12:49:43.163Z,99284.22
2023-01-25T12:51:47.045Z,99287.56
2023-01-25T12:53:51.904Z,99283.34
2023-01-25T12:55:55.523Z,99272.03
2023-01-25T12:58:03.181Z,99268.50
2023-01-25T13:00:17.059Z,99265.16
2023-01-25T13:02:51.748Z,99251.63
2023-01-25T13:05:02.110Z,99251.69
2023-01-25T13:07:12.016Z,99248.38
2023-01-25T13:09:17.765Z,99244.09
2023-01-25T13:11:23.148Z,99246.72
2023-01-25T13:13:27.529Z,99238.34
2023-01-25T13:15:41.998Z,99238.44
2023-01-25T13:17:46.362Z,99229.91
2023-01-25T13:19:49.837Z,99229.03
2023-01-25T13:21:56.626Z,99241.81
2023-01-25T13:24:17.692Z,99234.19
2023-01-25T13:26:54.384Z,99240.94
2023-01-25T13:28:58.258Z,99238.22
2023-01-25T13:31:01.675Z,99231.19
2023-01-25T13:33:09.966Z,99229.44
2023-01-25T13:35:34.001Z,99225.16
2023-01-25T13:37:37.473Z,99222.50
2023-01-25T13:39:47.998Z,99215.78
2023-01-25T13:42:00.779Z,99211.44
2023-01-25T13:44:21.977Z,99220.03
2023-01-25T13:46:25.876Z,99210.69
2023-01-25T13:48:31.020Z,99206.53
2023-01-25T13:50:36.353Z,99198.78
2023-01-25T13:52:39.550Z,99198.69
2023-01-25T13:54:46.113Z,99197.72
2023-01-25T13:56:49.148Z,99198.47
2023-01-25T13:58:52.239Z,99192.38
2023-01-25T14:00:56.778Z,99192.25
2023-01-25T14:02:59.975Z,99188.88
2023-01-25T14:05:08.090Z,99188.88
2023-01-25T14:07:15.761Z,99194.09
2023-01-25T14:09:21.730Z,99194.97
2023-01-25T14:11:27.353Z,99193.41
2023-01-25T14:13:30.486Z,99185.78
2023-01-25T14:15:34.411Z,99191.78
2023-01-25T14:17:37.530Z,99197.06
2023-01-25T14:19:41.754Z,99189.41
2023-01-25T14:21:46.177Z,99185.00
2023-01-25T14:23:49.900Z,99185.72
2023-01-25T14:25:53.958Z,99177.97
2023-01-25T14:27:58.511Z,99180.66
2023-01-25T14:30:01.970Z,99184.91
2023-01-25T14:32:05.687Z,99180.81
2023-01-25T14:34:18.218Z,99186.09
2023-01-25T14:36:25.677Z,99180.28
2023-01-25T14:38:32.228Z,99180.28
2023-01-25T14:40:35.311Z,99178.66
2023-01-25T14:42:38.448Z,99181.25
2023-01-25T14:44:41.842Z,99177.19
2023-01-25T14:46:46.587Z,99169.75
2023-01-25T14:48:49.692Z,99165.66
2023-01-25T14:50:52.765Z,99165.66
2023-01-25T14:52:55.970Z,99165.44
2023-01-25T14:55:01.172Z,99160.13
2023-01-25T14:57:05.884Z,99155.72
2023-01-25T14:59:22.220Z,99155.63
2023-01-25T15:01:33.706Z,99158.03
2023-01-25T15:03:44.748Z,99156.16
2023-01-25T15:05:48.604Z,99155.22
2023-01-25T15:07:53.484Z,99151.78
2023-01-25T15:10:05.654Z,99146.47
2023-01-25T15:12:28.958Z,99149.00
2023-01-25T15:14:32.614Z,99146.31
2023-01-25T15:16:36.233Z,99148.84
2023-01-25T15:18:46.232Z,99144.44
2023-01-25T15:20:49.677Z,99140.94
2023-01-25T15:22:52.824Z,99146.03
2023-01-25T15:24:58.556Z,99146.91
2023-01-25T15:27:03.425Z,99139.13
2023-01-25T15:29:13.619Z,99136.50
2023-01-25T15:31:19.087Z,99137.31
2023-01-25T15:33:23.927Z,99131.41
2023-01-25T15:35:27.798Z,99130.63
2023-01-25T15:37:30.814Z,99123.66
2023-01-25T15:39:34.958Z,99119.53
2023-01-25T15:41:38.093Z,99119.53
2023-01-25T15:43:43.150Z,99110.13
2023-01-25T15:45:48.468Z,99104.13
2023-01-25T15:47:51.537Z,99109.31
2023-01-25T15:49:54.579Z,99104.25
2023-01-25T15:51:57.990Z,99099.16
2023-01-25T15:54:01.235Z,99100.06
2023-01-25T15:56:07.026Z,99097.44
2023-01-25T15:58:12.321Z,99092.22
2023-01-25T16:00:23.131Z,99088.66
2023-01-25T16:02:27.373Z,99094.56
2023-01-25T16:04:30.431Z,99092.84
2023-01-25T16:06:38.283Z,99094.69
2023-01-25T16:08:41.399Z,99091.28
2023-01-25T16:10:44.615Z,99087.06
2023-01-25T16:12:47.730Z,99079.50
2023-01-25T16:14:50.811Z,99086.44
2023-01-25T16:16:55.619Z,99083.16
2023-01-25T16:18:58.642Z,99087.66
2023-01-25T16:21:01.908Z,99082.66
2023-01-25T16:23:04.991Z,99075.94
2023-01-25T16:25:09.311Z,99078.63
2023-01-25T16:27:20.515Z,99072.69
2023-01-25T16:29:23.971Z,99068.44
2023-01-25T16:31:32.909Z,99069.34
2023-01-25T16:33:37.867Z,99065.16
2023-01-25T16:35:40.883Z,99066.03
2023-01-25T16:37:44.063Z,99065.94
2023-01-25T16:39:47.121Z,99062.41
2023-01-25T16:41:50.565Z,99064.16
2023-01-25T16:43:53.599Z,99071.03
2023-01-25T16:45:57.909Z,99069.22
2023-01-25T16:48:01.893Z,99069.34
2023-01-25T16:50:13.518Z,99071.19
2023-01-25T16:52:16.610Z,99069.50
2023-01-25T16:54:20.828Z,99062.59
2023-01-25T16:56:25.021Z,99062.50
2023-01-25T16:58:28.050Z,99055.47
2023-01-25T17:00:31.033Z,99050.22
2023-01-25T17:02:34.095Z,99054.38
2023-01-25T17:04:37.148Z,99050.06
2023-01-25T17:06:43.840Z,99055.19
2023-01-25T17:08:47.188Z,99043.94
2023-01-25T17:10:50.571Z,99048.28
2023-01-25T17:12:53.564Z,99048.28
2023-01-25T17:14:59.481Z,99049.97
2023-01-25T17:17:05.235Z,99048.19
2023-01-25T17:19:11.590Z,99041.31
2023-01-25T17:21:16.799Z,99034.41
2023-01-25T17:23:22.501Z,99037.91
2023-01-25T17:25:26.260Z,99027.47
2023-01-25T17:27:29.349Z,99023.94
2023-01-25T17:29:32.642Z,99030.78
2023-01-25T17:31:36.408Z,99032.38
2023-01-25T17:33:39.508Z,99033.22
2023-01-25T17:35:42.509Z,99027.97
2023-01-25T17:37:45.654Z,99029.63
2023-01-25T17:39:50.024Z,99014.97
2023-01-25T17:41:53.118Z,99020.88
2023-01-25T17:43:56.230Z,99029.41
2023-01-25T17:45:59.649Z,99015.72
2023-01-25T17:48:03.188Z,99011.34
2023-01-25T17:50:07.160Z,99005.25
2023-01-25T17:52:10.337Z,99014.66
2023-01-25T17:54:14.055Z,99003.66
2023-01-25T17:56:19.202Z,99005.41
2023-01-25T17:58:22.203Z,99009.72
2023-01-25T18:00:25.516Z,99007.94
2023-01-25T18:02:28.598Z,99001.94
2023-01-25T18:04:31.817Z,99001.88
2023-01-25T18:06:35.141Z,98991.53
2023-01-25T18:08:40.242Z,98998.25
2023-01-25T18:10:43.288Z,98994.84
2023-01-25T18:13:03.770Z,98988.00
2023-01-25T18:15:09.251Z,98994.03
2023-01-25T18:17:12.609Z,98990.84
2023-01-25T18:19:15.813Z,98981.56
2023-01-25T18:21:24.082Z,98983.91
2023-01-25T18:23:27.147Z,98979.69
2023-01-25T18:25:33.748Z,98985.53
2023-01-25T18:27:36.797Z,98982.13
2023-01-25T18:29:50.676Z,98975.25
2023-01-25T18:31:54.065Z,98969.19
2023-01-25T18:33:58.227Z,98968.19
2023-01-25T18:36:03.876Z,98967.28
2023-01-25T18:38:07.043Z,98958.72
2023-01-25T18:40:11.693Z,98961.28
2023-01-25T18:42:14.784Z,98963.78
2023-01-25T18:44:18.485Z,98957.72
2023-01-25T18:46:22.982Z,98955.94
2023-01-25T18:48:30.397Z,98955.84
2023-01-25T18:50:33.737Z,98947.25
2023-01-25T18:52:37.228Z,98951.56
2023-01-25T18:54:40.362Z,98955.91
2023-01-25T18:56:43.367Z,98952.47
2023-01-25T18:58:46.589Z,98949.03
2023-01-25T19:00:49.642Z,98954.16
2023-01-25T19:02:54.189Z,98955.03
2023-01-25T19:04:57.205Z,98949.00
2023-01-25T19:07:01.664Z,98947.19
2023-01-25T19:09:05.058Z,98946.31
2023-01-25T19:11:09.885Z,98947.09
2023-01-25T19:13:12.976Z,98941.84
2023-01-25T19:15:16.450Z,98938.38
2023-01-25T19:17:19.642Z,98943.56
2023-01-25T19:19:24.399Z,98938.38
2023-01-25T19:21:28.876Z,98943.56
2023-01-25T19:23:34.839Z,98942.69
2023-01-25T19:25:37.994Z,98940.94
2023-01-25T19:27:41.276Z,98935.75
2023-01-25T19:29:44.309Z,98940.13
2023-01-25T19:31:47.430Z,98937.56
2023-01-25T19:33:55.280Z,98930.69
2023-01-25T19:36:05.291Z,98933.28
2023-01-25T19:38:08.495Z,98927.31
2023-01-25T19:40:13.356Z,98923.00
2023-01-25T19:42:18.564Z,98923.91
2023-01-25T19:44:22.074Z,98923.09
2023-01-25T19:46:27.265Z,98926.50
2023-01-25T19:48:32.303Z,98928.06
2023-01-25T19:50:35.415Z,98920.31
2023-01-25T19:52:39.886Z,98916.91
2023-01-25T19:54:43.069Z,98917.75
2023-01-25T19:56:47.569Z,98910.88
2023-01-25T19:58:53.014Z,98907.50
2023-01-25T20:00:56.331Z,98904.97
2023-01-25T20:03:14.883Z,98902.44
2023-01-25T20:05:19.193Z,98898.19
2023-01-25T20:07:22.331Z,98898.38
2023-01-25T20:09:28.417Z,98900.97
2023-01-25T20:11:33.313Z,98904.41
2023-01-25T20:13:36.649Z,98901.78
2023-01-25T20:15:39.933Z,98892.28
2023-01-25T20:17:43.607Z,98886.25
2023-01-25T20:19:46.754Z,98886.16
2023-01-25T20:21:50.183Z,98888.75
2023-01-25T20:23:56.066Z,98884.38
2023-01-25T20:26:02.650Z,98888.69
2023-01-25T20:28:05.987Z,98883.56
2023-01-25T20:30:10.308Z,98878.41
2023-01-25T20:32:30.714Z,98880.94
2023-01-25T20:34:35.308Z,98875.88
2023-01-25T20:36:38.761Z,98869.13
2023-01-25T20:38:42.495Z,98868.22
2023-01-25T20:40:45.521Z,98861.50
2023-01-25T20:42:50.220Z,98861.50
2023-01-25T20:44:53.813Z,98858.34
2023-01-25T20:46:57.046Z,98857.44
2023-01-25T20:49:00.378Z,98854.00
2023-01-25T20:51:05.020Z,98859.94
2023-01-25T20:53:08.192Z,98857.34
2023-01-25T20:55:11.654Z,98845.38
2023-01-25T20:57:14.904Z,98842.91
2023-01-25T20:59:19.737Z,98842.91
2023-01-25T21:01:24.278Z,98831.75
2023-01-25T21:03:29.818Z,98835.19
2023-01-25T21:05:33.047Z,98829.25
2023-01-25T21:07:36.056Z,98825.03
2023-01-25T21:09:40.323Z,98841.34
2023-01-25T21:11:44.515Z,98830.22
2023-01-25T21:13:48.828Z,98829.44
2023-01-25T21:16:04.685Z,98821.06
2023-01-25T21:18:07.834Z,98816.09
2023-01-25T21:20:11.903Z,98812.69
2023-01-25T21:22:14.849Z,98817.75
2023-01-25T21:24:18.098Z,98809.91
2023-01-25T21:26:22.974Z,98813.44
2023-01-25T21:28:25.946Z,98804.75
2023-01-25T21:30:29.392Z,98810.75
2023-01-25T21:32:33.827Z,98809.88
2023-01-25T21:34:36.923Z,98800.38
2023-01-25T21:36:40.102Z,98793.50
2023-01-25T21:38:43.961Z,98798.72
2023-01-25T21:40:47.107Z,98796.19
2023-01-25T21:42:50.029Z,98796.97
2023-01-25T21:45:10.983Z,98799.59
2023-01-25T21:47:29.365Z,98797.06
2023-01-25T21:49:52.281Z,98792.88
2023-01-25T21:51:56.824Z,98792.88
2023-01-25T21:54:00.191Z,98792.88
2023-01-25T21:56:03.145Z,98779.09
2023-01-25T21:58:06.150Z,98777.41
2023-01-25T22:00:10.836Z,98774.81
2023-01-25T22:02:15.248Z,98782.56
2023-01-25T22:04:19.284Z,98775.66
2023-01-25T22:06:23.848Z,98778.13
2023-01-25T22:08:26.855Z,98777.25
2023-01-25T22:10:29.938Z,98773.84
2023-01-25T22:12:33.479Z,98767.03
2023-01-25T22:14:36.707Z,98770.56
2023-01-25T22:16:39.736Z,98773.06
2023-01-25T22:18:43.533Z,98767.03
2023-01-25T22:20:46.510Z,98761.78
2023-01-25T22:22:50.864Z,98764.31
2023-01-25T22:24:53.998Z,98770.28
2023-01-25T22:27:00.244Z,98762.56
2023-01-25T22:29:03.399Z,98760.84
2023-01-25T22:31:06.915Z,98757.38
2023-01-25T22:33:10.012Z,98754.75
2023-01-25T22:35:13.024Z,98759.88
2023-01-25T22:37:16.076Z,98752.31
2023-01-25T22:39:20.424Z,98760.13
2023-01-25T22:41:25.813Z,98749.84
2023-01-25T22:43:28.773Z,98749.03
2023-01-25T22:45:31.823Z,98755.88
2023-01-25T22:47:34.992Z,98760.16
2023-01-25T22:49:37.974Z,98756.72
2023-01-25T22:51:40.972Z,98751.59
2023-01-25T22:53:43.971Z,98757.53
2023-01-25T22:55:48.381Z,98758.38
2023-01-25T22:57:51.341Z,98755.78
2023-01-25T22:59:54.363Z,98759.19
2023-01-25T23:01:57.317Z,98763.47
2023-01-25T23:04:01.442Z,98760.06
2023-01-25T23:06:06.704Z,98751.59
2023-01-25T23:08:09.708Z,98744.88
2023-01-25T23:10:12.873Z,98743.09
2023-01-25T23:12:17.380Z,98745.56
2023-01-25T23:14:37.654Z,98740.41
2023-01-25T23:16:40.677Z,98736.13
2023-01-25T23:18:51.790Z,98738.75
2023-01-25T23:20:55.138Z,98734.41
2023-01-25T23:22:58.193Z,98733.72
2023-01-25T23:25:01.286Z,98733.78
2023-01-25T23:27:04.276Z,98738.13
2023-01-25T23:29:11.303Z,98722.59
2023-01-25T23:31:18.195Z,98729.44
2023-01-25T23:33:21.296Z,98729.50
2023-01-25T23:35:24.596Z,98734.66
2023-01-25T23:37:27.875Z,98721.81
2023-01-25T23:39:30.874Z,98726.13
2023-01-25T23:41:33.961Z,98714.13
2023-01-25T23:43:37.565Z,98714.97
2023-01-25T23:45:44.537Z,98707.31
2023-01-25T23:47:47.578Z,98705.66
2023-01-25T23:49:50.644Z,98704.69
2023-01-25T23:51:53.645Z,98699.53
2023-01-25T23:53:58.264Z,98695.25
2023-01-25T23:56:02.860Z,98692.59
2023-01-25T23:58:05.950Z,98682.34
